sensor_id;sensor_type;location;lat;lon;timestamp;temperature;humidity
678;DHT22;321;48.814;9.132;2023-02-22T00:00:35;6.90;99.90
678;DHT22;321;48.814;9.132;2023-02-22T00:03:19;6.90;99.90
678;DHT22;321;48.814;9.132;2023-02-22T00:05:51;6.90;99.90
678;DHT22;321;48.814;9.132;2023-02-22T00:08:19;6.80;99.90
678;DHT22;321;48.814;9.132;2023-02-22T00:10:45;6.90;99.90
678;DHT22;321;48.814;9.132;2023-02-22T00:13:12;6.70;99.90
678;DHT22;321;48.814;9.132;2023-02-22T00:15:38;6.70;99.90
678;DHT22;321;48.814;9.132;2023-02-22T00:18:06;6.70;99.90
678;DHT22;321;48.814;9.132;2023-02-22T00:23:07;6.60;99.90
678;DHT22;321;48.814;9.132;2023-02-22T00:25:33;6.40;99.90
678;DHT22;321;48.814;9.132;2023-02-22T00:28:00;6.50;99.90
678;DHT22;321;48.814;9.132;2023-02-22T00:30:28;6.50;99.90
678;DHT22;321;48.814;9.132;2023-02-22T00:32:56;6.60;99.90
678;DHT22;321;48.814;9.132;2023-02-22T00:35:24;6.70;99.90
678;DHT22;321;48.814;9.132;2023-02-22T00:37:51;6.60;99.90
678;DHT22;321;48.814;9.132;2023-02-22T00:40:20;7.70;99.90
678;DHT22;321;48.814;9.132;2023-02-22T00:42:46;6.70;99.90
678;DHT22;321;48.814;9.132;2023-02-22T00:45:18;6.80;99.90
678;DHT22;321;48.814;9.132;2023-02-22T00:47:44;6.70;99.90
678;DHT22;321;48.814;9.132;2023-02-22T00:50:10;6.70;99.90
678;DHT22;321;48.814;9.132;2023-02-22T00:52:37;6.70;99.90
678;DHT22;321;48.814;9.132;2023-02-22T00:55:05;6.50;99.90
678;DHT22;321;48.814;9.132;2023-02-22T00:57:31;6.40;99.90
678;DHT22;321;48.814;9.132;2023-02-22T00:59:59;6.50;99.90
678;DHT22;321;48.814;9.132;2023-02-22T01:02:25;6.60;99.90
678;DHT22;321;48.814;9.132;2023-02-22T01:04:51;6.70;99.90
678;DHT22;321;48.814;9.132;2023-02-22T01:07:16;6.60;99.90
678;DHT22;321;48.814;9.132;2023-02-22T01:09:42;6.60;99.90
678;DHT22;321;48.814;9.132;2023-02-22T01:12:08;6.60;99.90
678;DHT22;321;48.814;9.132;2023-02-22T01:14:34;6.60;99.90
678;DHT22;321;48.814;9.132;2023-02-22T01:16:59;6.40;99.90
678;DHT22;321;48.814;9.132;2023-02-22T01:19:25;6.20;99.90
678;DHT22;321;48.814;9.132;2023-02-22T01:21:50;6.10;99.90
678;DHT22;321;48.814;9.132;2023-02-22T01:24:17;6.10;99.90
678;DHT22;321;48.814;9.132;2023-02-22T01:26:47;6.30;99.90
678;DHT22;321;48.814;9.132;2023-02-22T01:29:14;6.50;99.90
678;DHT22;321;48.814;9.132;2023-02-22T01:31:41;6.60;99.90
678;DHT22;321;48.814;9.132;2023-02-22T01:34:09;6.60;99.90
678;DHT22;321;48.814;9.132;2023-02-22T01:36:34;6.50;99.90
678;DHT22;321;48.814;9.132;2023-02-22T01:39:00;6.60;99.90
678;DHT22;321;48.814;9.132;2023-02-22T01:41:26;6.60;99.90
678;DHT22;321;48.814;9.132;2023-02-22T01:43:51;6.50;99.90
678;DHT22;321;48.814;9.132;2023-02-22T01:46:22;6.60;99.90
678;DHT22;321;48.814;9.132;2023-02-22T01:48:55;6.60;99.90
678;DHT22;321;48.814;9.132;2023-02-22T01:51:26;6.50;99.90
678;DHT22;321;48.814;9.132;2023-02-22T01:54:02;6.30;99.90
678;DHT22;321;48.814;9.132;2023-02-22T01:56:30;6.30;99.90
678;DHT22;321;48.814;9.132;2023-02-22T01:59:01;6.40;99.90
678;DHT22;321;48.814;9.132;2023-02-22T02:01:28;6.40;99.90
678;DHT22;321;48.814;9.132;2023-02-22T02:03:56;6.40;99.90
678;DHT22;321;48.814;9.132;2023-02-22T02:06:23;6.40;99.90
678;DHT22;321;48.814;9.132;2023-02-22T02:09:03;6.40;99.90
678;DHT22;321;48.814;9.132;2023-02-22T02:11:30;6.30;99.90
678;DHT22;321;48.814;9.132;2023-02-22T02:13:58;6.40;99.90
678;DHT22;321;48.814;9.132;2023-02-22T02:16:33;6.40;99.90
678;DHT22;321;48.814;9.132;2023-02-22T02:18:59;6.10;99.90
678;DHT22;321;48.814;9.132;2023-02-22T02:21:51;6.10;99.90
678;DHT22;321;48.814;9.132;2023-02-22T02:27:20;6.00;99.90
678;DHT22;321;48.814;9.132;2023-02-22T02:30:17;6.00;99.90
678;DHT22;321;48.814;9.132;2023-02-22T02:38:33;5.90;99.90
678;DHT22;321;48.814;9.132;2023-02-22T02:41:17;5.90;99.90
678;DHT22;321;48.814;9.132;2023-02-22T02:44:08;6.00;99.90
678;DHT22;321;48.814;9.132;2023-02-22T02:46:45;6.10;99.90
678;DHT22;321;48.814;9.132;2023-02-22T02:49:18;6.20;99.90
678;DHT22;321;48.814;9.132;2023-02-22T02:51:50;6.20;99.90
678;DHT22;321;48.814;9.132;2023-02-22T02:54:16;6.10;99.90
678;DHT22;321;48.814;9.132;2023-02-22T02:56:42;6.20;99.90
678;DHT22;321;48.814;9.132;2023-02-22T02:59:29;6.20;99.90
678;DHT22;321;48.814;9.132;2023-02-22T03:04:36;6.40;99.90
678;DHT22;321;48.814;9.132;2023-02-22T03:07:12;6.40;99.90
678;DHT22;321;48.814;9.132;2023-02-22T03:15:18;6.70;99.90
678;DHT22;321;48.814;9.132;2023-02-22T03:17:53;6.80;99.90
678;DHT22;321;48.814;9.132;2023-02-22T03:23:13;6.70;99.90
678;DHT22;321;48.814;9.132;2023-02-22T03:25:47;6.70;99.90
678;DHT22;321;48.814;9.132;2023-02-22T03:28:16;6.60;99.90
678;DHT22;321;48.814;9.132;2023-02-22T03:30:47;6.70;99.90
678;DHT22;321;48.814;9.132;2023-02-22T03:33:26;6.60;99.90
678;DHT22;321;48.814;9.132;2023-02-22T03:36:01;6.60;99.90
678;DHT22;321;48.814;9.132;2023-02-22T03:38:30;6.20;99.90
678;DHT22;321;48.814;9.132;2023-02-22T03:41:00;6.00;99.90
678;DHT22;321;48.814;9.132;2023-02-22T03:43:52;5.90;99.90
678;DHT22;321;48.814;9.132;2023-02-22T03:46:19;6.00;99.90
678;DHT22;321;48.814;9.132;2023-02-22T03:48:52;6.00;99.90
678;DHT22;321;48.814;9.132;2023-02-22T03:51:21;6.00;99.90
678;DHT22;321;48.814;9.132;2023-02-22T03:53:48;6.20;99.90
678;DHT22;321;48.814;9.132;2023-02-22T03:56:29;6.40;99.90
678;DHT22;321;48.814;9.132;2023-02-22T03:59:04;6.50;99.90
678;DHT22;321;48.814;9.132;2023-02-22T04:01:31;6.60;99.90
678;DHT22;321;48.814;9.132;2023-02-22T04:03:56;6.50;99.90
678;DHT22;321;48.814;9.132;2023-02-22T04:06:25;6.50;99.90
678;DHT22;321;48.814;9.132;2023-02-22T04:08:50;6.40;99.90
678;DHT22;321;48.814;9.132;2023-02-22T04:11:16;6.40;99.90
678;DHT22;321;48.814;9.132;2023-02-22T04:13:41;6.30;99.90
678;DHT22;321;48.814;9.132;2023-02-22T04:16:07;6.20;99.90
678;DHT22;321;48.814;9.132;2023-02-22T04:18:32;6.10;99.90
678;DHT22;321;48.814;9.132;2023-02-22T04:20:58;6.20;99.90
678;DHT22;321;48.814;9.132;2023-02-22T04:23:23;6.20;99.90
678;DHT22;321;48.814;9.132;2023-02-22T04:25:49;6.10;99.90
678;DHT22;321;48.814;9.132;2023-02-22T04:28:14;6.10;99.90
678;DHT22;321;48.814;9.132;2023-02-22T04:30:40;6.00;99.90
678;DHT22;321;48.814;9.132;2023-02-22T04:33:06;6.00;99.90
678;DHT22;321;48.814;9.132;2023-02-22T04:35:31;5.90;99.90
678;DHT22;321;48.814;9.132;2023-02-22T04:37:57;5.80;99.90
678;DHT22;321;48.814;9.132;2023-02-22T04:40:22;5.90;99.90
678;DHT22;321;48.814;9.132;2023-02-22T04:42:48;6.00;99.90
678;DHT22;321;48.814;9.132;2023-02-22T04:45:14;6.00;99.90
678;DHT22;321;48.814;9.132;2023-02-22T04:47:39;6.10;99.90
678;DHT22;321;48.814;9.132;2023-02-22T04:50:06;5.90;99.90
678;DHT22;321;48.814;9.132;2023-02-22T04:52:32;5.90;99.90
678;DHT22;321;48.814;9.132;2023-02-22T04:54:58;5.90;99.90
678;DHT22;321;48.814;9.132;2023-02-22T04:57:23;5.90;99.90
678;DHT22;321;48.814;9.132;2023-02-22T04:59:49;6.00;99.90
678;DHT22;321;48.814;9.132;2023-02-22T05:02:16;6.00;99.90
678;DHT22;321;48.814;9.132;2023-02-22T05:04:41;6.10;99.90
678;DHT22;321;48.814;9.132;2023-02-22T05:07:07;6.10;99.90
678;DHT22;321;48.814;9.132;2023-02-22T05:09:32;6.10;99.90
678;DHT22;321;48.814;9.132;2023-02-22T05:11:58;6.10;99.90
678;DHT22;321;48.814;9.132;2023-02-22T05:14:24;6.20;99.90
678;DHT22;321;48.814;9.132;2023-02-22T05:17:02;6.20;99.90
678;DHT22;321;48.814;9.132;2023-02-22T05:19:28;6.10;99.90
678;DHT22;321;48.814;9.132;2023-02-22T05:21:53;6.20;99.90
678;DHT22;321;48.814;9.132;2023-02-22T05:24:21;6.20;99.90
678;DHT22;321;48.814;9.132;2023-02-22T05:26:47;6.10;99.90
678;DHT22;321;48.814;9.132;2023-02-22T05:29:12;6.10;99.90
678;DHT22;321;48.814;9.132;2023-02-22T05:31:38;5.90;99.90
678;DHT22;321;48.814;9.132;2023-02-22T05:34:06;6.00;99.90
678;DHT22;321;48.814;9.132;2023-02-22T05:36:31;6.10;99.90
678;DHT22;321;48.814;9.132;2023-02-22T05:38:57;6.20;99.90
678;DHT22;321;48.814;9.132;2023-02-22T05:41:22;6.20;99.90
678;DHT22;321;48.814;9.132;2023-02-22T05:43:49;6.20;99.90
678;DHT22;321;48.814;9.132;2023-02-22T05:46:14;6.30;99.90
678;DHT22;321;48.814;9.132;2023-02-22T05:48:40;6.20;99.90
678;DHT22;321;48.814;9.132;2023-02-22T05:51:06;6.20;99.90
678;DHT22;321;48.814;9.132;2023-02-22T05:53:31;6.20;99.90
678;DHT22;321;48.814;9.132;2023-02-22T05:55:57;6.30;99.90
678;DHT22;321;48.814;9.132;2023-02-22T05:58:23;6.40;99.90
678;DHT22;321;48.814;9.132;2023-02-22T06:00:48;6.30;99.90
678;DHT22;321;48.814;9.132;2023-02-22T06:03:14;6.40;99.90
678;DHT22;321;48.814;9.132;2023-02-22T06:05:39;6.50;99.90
678;DHT22;321;48.814;9.132;2023-02-22T06:08:06;6.50;99.90
678;DHT22;321;48.814;9.132;2023-02-22T06:10:32;6.50;99.90
678;DHT22;321;48.814;9.132;2023-02-22T06:12:58;6.50;99.90
678;DHT22;321;48.814;9.132;2023-02-22T06:15:25;6.40;99.90
678;DHT22;321;48.814;9.132;2023-02-22T06:17:52;6.40;99.90
678;DHT22;321;48.814;9.132;2023-02-22T06:20:21;6.30;99.90
678;DHT22;321;48.814;9.132;2023-02-22T06:22:48;6.30;99.90
678;DHT22;321;48.814;9.132;2023-02-22T06:25:16;6.40;99.90
678;DHT22;321;48.814;9.132;2023-02-22T06:27:42;6.40;99.90
678;DHT22;321;48.814;9.132;2023-02-22T06:30:12;6.20;99.90
678;DHT22;321;48.814;9.132;2023-02-22T06:32:40;6.20;99.90
678;DHT22;321;48.814;9.132;2023-02-22T06:35:06;6.30;99.90
678;DHT22;321;48.814;9.132;2023-02-22T06:37:32;6.30;99.90
678;DHT22;321;48.814;9.132;2023-02-22T06:39:57;6.30;99.90
678;DHT22;321;48.814;9.132;2023-02-22T06:42:23;6.30;99.90
678;DHT22;321;48.814;9.132;2023-02-22T06:44:48;6.40;99.90
678;DHT22;321;48.814;9.132;2023-02-22T06:47:14;6.40;99.90
678;DHT22;321;48.814;9.132;2023-02-22T06:49:40;6.40;99.90
678;DHT22;321;48.814;9.132;2023-02-22T06:52:06;6.50;99.90
678;DHT22;321;48.814;9.132;2023-02-22T06:54:33;6.60;99.90
678;DHT22;321;48.814;9.132;2023-02-22T06:56:58;6.70;99.90
678;DHT22;321;48.814;9.132;2023-02-22T06:59:24;6.70;99.90
678;DHT22;321;48.814;9.132;2023-02-22T07:01:49;6.80;99.90
678;DHT22;321;48.814;9.132;2023-02-22T07:04:15;6.80;99.90
678;DHT22;321;48.814;9.132;2023-02-22T07:06:48;6.90;99.90
678;DHT22;321;48.814;9.132;2023-02-22T07:09:15;6.90;99.90
678;DHT22;321;48.814;9.132;2023-02-22T07:11:41;7.00;99.90
678;DHT22;321;48.814;9.132;2023-02-22T07:14:07;7.10;99.90
678;DHT22;321;48.814;9.132;2023-02-22T07:16:33;7.00;99.90
678;DHT22;321;48.814;9.132;2023-02-22T07:18:59;7.10;99.90
678;DHT22;321;48.814;9.132;2023-02-22T07:21:28;7.20;99.90
678;DHT22;321;48.814;9.132;2023-02-22T07:23:55;7.30;99.90
678;DHT22;321;48.814;9.132;2023-02-22T07:26:22;7.40;99.90
678;DHT22;321;48.814;9.132;2023-02-22T07:28:48;7.40;99.90
678;DHT22;321;48.814;9.132;2023-02-22T07:31:14;7.50;99.90
678;DHT22;321;48.814;9.132;2023-02-22T07:33:40;7.60;99.90
678;DHT22;321;48.814;9.132;2023-02-22T07:36:06;7.60;99.90
678;DHT22;321;48.814;9.132;2023-02-22T07:38:31;7.70;99.90
678;DHT22;321;48.814;9.132;2023-02-22T07:40:57;7.80;99.90
678;DHT22;321;48.814;9.132;2023-02-22T07:43:25;7.80;99.90
678;DHT22;321;48.814;9.132;2023-02-22T07:45:54;7.90;99.90
678;DHT22;321;48.814;9.132;2023-02-22T07:48:22;7.80;99.90
678;DHT22;321;48.814;9.132;2023-02-22T07:50:47;8.00;99.90
678;DHT22;321;48.814;9.132;2023-02-22T07:53:25;8.00;99.90
678;DHT22;321;48.814;9.132;2023-02-22T07:55:51;8.20;99.90
678;DHT22;321;48.814;9.132;2023-02-22T07:58:21;8.20;99.90
678;DHT22;321;48.814;9.132;2023-02-22T08:00:47;8.30;99.90
678;DHT22;321;48.814;9.132;2023-02-22T08:03:14;8.50;99.90
678;DHT22;321;48.814;9.132;2023-02-22T08:05:43;8.60;99.90
678;DHT22;321;48.814;9.132;2023-02-22T08:08:10;8.80;99.90
678;DHT22;321;48.814;9.132;2023-02-22T08:10:36;8.90;99.90
678;DHT22;321;48.814;9.132;2023-02-22T08:13:03;9.10;99.90
678;DHT22;321;48.814;9.132;2023-02-22T08:15:31;9.20;99.90
678;DHT22;321;48.814;9.132;2023-02-22T08:17:58;9.40;99.90
678;DHT22;321;48.814;9.132;2023-02-22T08:20:26;9.60;99.90
678;DHT22;321;48.814;9.132;2023-02-22T08:22:52;9.80;99.90
678;DHT22;321;48.814;9.132;2023-02-22T08:25:19;9.90;99.90
678;DHT22;321;48.814;9.132;2023-02-22T08:27:45;10.00;99.90
678;DHT22;321;48.814;9.132;2023-02-22T08:30:18;10.10;99.90
678;DHT22;321;48.814;9.132;2023-02-22T08:32:48;10.20;99.90
678;DHT22;321;48.814;9.132;2023-02-22T08:35:15;10.40;99.90
678;DHT22;321;48.814;9.132;2023-02-22T08:37:45;10.50;99.90
678;DHT22;321;48.814;9.132;2023-02-22T08:40:12;10.70;99.90
678;DHT22;321;48.814;9.132;2023-02-22T08:42:38;10.80;99.90
678;DHT22;321;48.814;9.132;2023-02-22T08:45:04;11.00;99.90
678;DHT22;321;48.814;9.132;2023-02-22T08:47:29;11.30;99.90
678;DHT22;321;48.814;9.132;2023-02-22T08:49:55;11.50;99.90
678;DHT22;321;48.814;9.132;2023-02-22T08:52:21;11.70;99.90
678;DHT22;321;48.814;9.132;2023-02-22T08:54:46;11.80;99.90
678;DHT22;321;48.814;9.132;2023-02-22T08:57:12;12.00;99.90
678;DHT22;321;48.814;9.132;2023-02-22T08:59:38;12.10;99.90
678;DHT22;321;48.814;9.132;2023-02-22T09:02:04;12.30;99.90
678;DHT22;321;48.814;9.132;2023-02-22T09:04:30;12.60;99.90
678;DHT22;321;48.814;9.132;2023-02-22T09:06:55;12.60;99.90
678;DHT22;321;48.814;9.132;2023-02-22T09:09:21;12.70;99.90
678;DHT22;321;48.814;9.132;2023-02-22T09:11:47;12.80;99.90
678;DHT22;321;48.814;9.132;2023-02-22T09:14:13;12.90;99.90
678;DHT22;321;48.814;9.132;2023-02-22T09:16:39;12.80;99.90
678;DHT22;321;48.814;9.132;2023-02-22T09:19:05;12.90;99.90
678;DHT22;321;48.814;9.132;2023-02-22T09:21:30;12.90;99.90
678;DHT22;321;48.814;9.132;2023-02-22T09:23:56;13.10;99.90
678;DHT22;321;48.814;9.132;2023-02-22T09:26:22;13.40;99.90
678;DHT22;321;48.814;9.132;2023-02-22T09:28:49;12.90;99.90
678;DHT22;321;48.814;9.132;2023-02-22T09:31:14;13.20;99.90
678;DHT22;321;48.814;9.132;2023-02-22T09:33:40;13.50;99.90
678;DHT22;321;48.814;9.132;2023-02-22T09:36:06;13.80;99.90
678;DHT22;321;48.814;9.132;2023-02-22T09:38:32;14.10;99.90
678;DHT22;321;48.814;9.132;2023-02-22T09:43:32;14.60;99.50
678;DHT22;321;48.814;9.132;2023-02-22T09:48:59;15.20;96.90
678;DHT22;321;48.814;9.132;2023-02-22T09:51:31;15.70;98.00
678;DHT22;321;48.814;9.132;2023-02-22T09:54:01;16.10;95.60
678;DHT22;321;48.814;9.132;2023-02-22T09:56:28;16.20;95.00
678;DHT22;321;48.814;9.132;2023-02-22T09:58:59;16.40;94.40
678;DHT22;321;48.814;9.132;2023-02-22T10:01:47;16.50;93.70
678;DHT22;321;48.814;9.132;2023-02-22T10:09:43;16.70;93.50
678;DHT22;321;48.814;9.132;2023-02-22T10:18:11;17.00;92.10
678;DHT22;321;48.814;9.132;2023-02-22T10:21:15;16.70;91.80
678;DHT22;321;48.814;9.132;2023-02-22T10:23:58;17.00;91.70
678;DHT22;321;48.814;9.132;2023-02-22T10:26:31;17.30;90.70
678;DHT22;321;48.814;9.132;2023-02-22T10:29:16;17.20;90.80
678;DHT22;321;48.814;9.132;2023-02-22T10:31:50;17.00;91.40
678;DHT22;321;48.814;9.132;2023-02-22T10:34:20;17.40;91.20
678;DHT22;321;48.814;9.132;2023-02-22T10:36:51;17.50;90.00
678;DHT22;321;48.814;9.132;2023-02-22T10:39:34;17.70;90.80
678;DHT22;321;48.814;9.132;2023-02-22T10:42:03;18.10;91.40
678;DHT22;321;48.814;9.132;2023-02-22T10:44:35;18.50;89.20
678;DHT22;321;48.814;9.132;2023-02-22T10:47:04;18.60;90.50
678;DHT22;321;48.814;9.132;2023-02-22T10:49:46;18.70;88.90
678;DHT22;321;48.814;9.132;2023-02-22T10:52:25;19.00;90.80
678;DHT22;321;48.814;9.132;2023-02-22T10:54:51;19.10;89.30
678;DHT22;321;48.814;9.132;2023-02-22T10:57:21;19.30;87.70
678;DHT22;321;48.814;9.132;2023-02-22T10:59:47;19.80;89.80
678;DHT22;321;48.814;9.132;2023-02-22T11:02:30;19.90;85.90
678;DHT22;321;48.814;9.132;2023-02-22T11:04:58;20.10;84.10
678;DHT22;321;48.814;9.132;2023-02-22T11:07:32;19.60;84.30
678;DHT22;321;48.814;9.132;2023-02-22T11:10:01;19.40;84.70
678;DHT22;321;48.814;9.132;2023-02-22T11:12:31;19.20;86.90
678;DHT22;321;48.814;9.132;2023-02-22T11:15:18;19.20;87.10
678;DHT22;321;48.814;9.132;2023-02-22T11:17:45;19.30;86.10
678;DHT22;321;48.814;9.132;2023-02-22T11:20:23;19.20;85.80
678;DHT22;321;48.814;9.132;2023-02-22T11:22:57;19.10;86.10
678;DHT22;321;48.814;9.132;2023-02-22T11:25:29;19.10;86.80
678;DHT22;321;48.814;9.132;2023-02-22T11:28:09;19.00;87.60
678;DHT22;321;48.814;9.132;2023-02-22T11:30:40;19.00;88.90
678;DHT22;321;48.814;9.132;2023-02-22T11:33:18;19.30;89.00
678;DHT22;321;48.814;9.132;2023-02-22T11:35:54;19.60;87.30
678;DHT22;321;48.814;9.132;2023-02-22T11:43:43;19.40;86.70
678;DHT22;321;48.814;9.132;2023-02-22T11:46:30;19.00;87.50
678;DHT22;321;48.814;9.132;2023-02-22T11:49:10;19.00;85.60
678;DHT22;321;48.814;9.132;2023-02-22T11:51:55;18.80;89.00
678;DHT22;321;48.814;9.132;2023-02-22T11:54:33;18.90;87.50
678;DHT22;321;48.814;9.132;2023-02-22T11:57:07;18.70;89.10
678;DHT22;321;48.814;9.132;2023-02-22T12:13:00;17.90;90.60
678;DHT22;321;48.814;9.132;2023-02-22T12:15:50;17.60;90.50
678;DHT22;321;48.814;9.132;2023-02-22T12:21:06;17.20;91.50
678;DHT22;321;48.814;9.132;2023-02-22T12:26:17;16.70;93.30
678;DHT22;321;48.814;9.132;2023-02-22T12:29:01;16.40;93.60
678;DHT22;321;48.814;9.132;2023-02-22T12:31:48;16.50;94.50
678;DHT22;321;48.814;9.132;2023-02-22T12:37:28;16.90;93.60
678;DHT22;321;48.814;9.132;2023-02-22T12:40:03;17.10;93.60
678;DHT22;321;48.814;9.132;2023-02-22T12:42:47;17.10;92.30
678;DHT22;321;48.814;9.132;2023-02-22T12:48:24;17.00;92.60
678;DHT22;321;48.814;9.132;2023-02-22T12:50:57;17.10;92.00
678;DHT22;321;48.814;9.132;2023-02-22T12:53:37;16.80;92.20
678;DHT22;321;48.814;9.132;2023-02-22T12:56:41;16.90;92.60
678;DHT22;321;48.814;9.132;2023-02-22T12:59:24;17.00;92.70
678;DHT22;321;48.814;9.132;2023-02-22T13:02:11;16.90;93.70
678;DHT22;321;48.814;9.132;2023-02-22T13:04:38;16.80;92.90
678;DHT22;321;48.814;9.132;2023-02-22T13:15:15;17.00;93.70
678;DHT22;321;48.814;9.132;2023-02-22T13:29:01;16.90;92.10
678;DHT22;321;48.814;9.132;2023-02-22T13:31:38;16.80;93.20
678;DHT22;321;48.814;9.132;2023-02-22T13:37:13;16.50;93.50
678;DHT22;321;48.814;9.132;2023-02-22T13:43:00;16.40;93.20
678;DHT22;321;48.814;9.132;2023-02-22T13:53:59;15.70;94.50
678;DHT22;321;48.814;9.132;2023-02-22T13:56:27;15.70;94.70
678;DHT22;321;48.814;9.132;2023-02-22T13:58:57;15.60;95.20
678;DHT22;321;48.814;9.132;2023-02-22T14:06:54;15.30;95.30
678;DHT22;321;48.814;9.132;2023-02-22T14:17:34;15.20;96.60
678;DHT22;321;48.814;9.132;2023-02-22T14:20:17;15.20;96.60
678;DHT22;321;48.814;9.132;2023-02-22T14:22:51;15.20;96.60
678;DHT22;321;48.814;9.132;2023-02-22T14:25:30;15.30;96.70
678;DHT22;321;48.814;9.132;2023-02-22T14:27:56;15.40;97.00
678;DHT22;321;48.814;9.132;2023-02-22T14:30:25;15.40;96.40
678;DHT22;321;48.814;9.132;2023-02-22T14:32:51;15.60;94.90
678;DHT22;321;48.814;9.132;2023-02-22T14:35:17;15.70;95.10
678;DHT22;321;48.814;9.132;2023-02-22T14:37:50;15.70;95.20
678;DHT22;321;48.814;9.132;2023-02-22T14:42:49;15.70;95.60
678;DHT22;321;48.814;9.132;2023-02-22T14:45:22;15.80;96.00
678;DHT22;321;48.814;9.132;2023-02-22T14:55:41;16.00;96.20
678;DHT22;321;48.814;9.132;2023-02-22T14:58:28;16.00;95.60
678;DHT22;321;48.814;9.132;2023-02-22T15:00:56;16.00;95.30
678;DHT22;321;48.814;9.132;2023-02-22T15:03:29;16.10;95.60
678;DHT22;321;48.814;9.132;2023-02-22T15:06:22;16.20;94.80
678;DHT22;321;48.814;9.132;2023-02-22T15:09:03;16.00;95.50
678;DHT22;321;48.814;9.132;2023-02-22T15:11:30;16.00;95.40
678;DHT22;321;48.814;9.132;2023-02-22T15:14:00;16.00;94.70
678;DHT22;321;48.814;9.132;2023-02-22T15:16:29;16.10;96.00
678;DHT22;321;48.814;9.132;2023-02-22T15:19:03;16.10;96.40
678;DHT22;321;48.814;9.132;2023-02-22T15:21:33;16.10;95.70
678;DHT22;321;48.814;9.132;2023-02-22T15:24:04;16.10;95.00
678;DHT22;321;48.814;9.132;2023-02-22T15:26:37;16.10;95.20
678;DHT22;321;48.814;9.132;2023-02-22T15:29:19;16.00;95.70
678;DHT22;321;48.814;9.132;2023-02-22T15:31:45;15.90;96.40
678;DHT22;321;48.814;9.132;2023-02-22T15:36:41;15.90;95.80
678;DHT22;321;48.814;9.132;2023-02-22T15:41:43;15.80;96.40
678;DHT22;321;48.814;9.132;2023-02-22T15:44:09;15.80;95.80
678;DHT22;321;48.814;9.132;2023-02-22T15:46:39;15.60;96.00
678;DHT22;321;48.814;9.132;2023-02-22T15:51:36;15.50;97.10
678;DHT22;321;48.814;9.132;2023-02-22T15:54:03;15.30;97.00
678;DHT22;321;48.814;9.132;2023-02-22T15:56:34;15.30;97.00
678;DHT22;321;48.814;9.132;2023-02-22T15:59:12;15.40;96.60
678;DHT22;321;48.814;9.132;2023-02-22T16:01:40;15.10;96.50
678;DHT22;321;48.814;9.132;2023-02-22T16:04:20;15.10;97.30
678;DHT22;321;48.814;9.132;2023-02-22T16:06:47;15.10;97.80
678;DHT22;321;48.814;9.132;2023-02-22T16:09:16;15.10;97.90
678;DHT22;321;48.814;9.132;2023-02-22T16:11:44;15.00;98.40
678;DHT22;321;48.814;9.132;2023-02-22T16:19:51;14.90;99.70
678;DHT22;321;48.814;9.132;2023-02-22T16:22:30;14.90;98.30
678;DHT22;321;48.814;9.132;2023-02-22T16:27:44;14.80;98.00
678;DHT22;321;48.814;9.132;2023-02-22T16:30:33;14.70;98.80
678;DHT22;321;48.814;9.132;2023-02-22T16:33:02;14.70;99.40
678;DHT22;321;48.814;9.132;2023-02-22T16:35:30;14.50;99.10
678;DHT22;321;48.814;9.132;2023-02-22T16:37:59;14.40;99.10
678;DHT22;321;48.814;9.132;2023-02-22T16:40:35;14.30;99.70
678;DHT22;321;48.814;9.132;2023-02-22T16:43:07;14.20;99.90
678;DHT22;321;48.814;9.132;2023-02-22T16:45:33;14.10;99.90
678;DHT22;321;48.814;9.132;2023-02-22T16:48:00;14.00;99.90
678;DHT22;321;48.814;9.132;2023-02-22T16:50:29;13.80;99.90
678;DHT22;321;48.814;9.132;2023-02-22T16:52:55;13.70;99.90
678;DHT22;321;48.814;9.132;2023-02-22T16:55:23;13.50;99.90
678;DHT22;321;48.814;9.132;2023-02-22T16:57:49;13.30;99.90
678;DHT22;321;48.814;9.132;2023-02-22T17:00:20;13.20;99.90
678;DHT22;321;48.814;9.132;2023-02-22T17:02:59;13.10;99.90
678;DHT22;321;48.814;9.132;2023-02-22T17:05:31;13.00;99.90
678;DHT22;321;48.814;9.132;2023-02-22T17:08:00;12.90;99.90
678;DHT22;321;48.814;9.132;2023-02-22T17:10:26;12.90;99.90
678;DHT22;321;48.814;9.132;2023-02-22T17:12:53;12.80;99.90
678;DHT22;321;48.814;9.132;2023-02-22T17:15:29;12.60;99.90
678;DHT22;321;48.814;9.132;2023-02-22T17:17:55;12.60;99.90
678;DHT22;321;48.814;9.132;2023-02-22T17:20:22;12.50;99.90
678;DHT22;321;48.814;9.132;2023-02-22T17:22:59;12.50;99.90
678;DHT22;321;48.814;9.132;2023-02-22T17:25:29;12.40;99.90
678;DHT22;321;48.814;9.132;2023-02-22T17:27:55;12.40;99.90
678;DHT22;321;48.814;9.132;2023-02-22T17:30:21;12.30;99.90
678;DHT22;321;48.814;9.132;2023-02-22T17:32:48;12.20;99.90
678;DHT22;321;48.814;9.132;2023-02-22T17:35:19;12.10;99.90
678;DHT22;321;48.814;9.132;2023-02-22T17:37:48;12.00;99.90
678;DHT22;321;48.814;9.132;2023-02-22T17:40:13;11.90;99.90
678;DHT22;321;48.814;9.132;2023-02-22T17:42:41;11.80;99.90
678;DHT22;321;48.814;9.132;2023-02-22T17:45:07;11.80;99.90
678;DHT22;321;48.814;9.132;2023-02-22T17:47:33;11.70;99.90
678;DHT22;321;48.814;9.132;2023-02-22T17:49:58;11.60;99.90
678;DHT22;321;48.814;9.132;2023-02-22T17:52:24;11.60;99.90
678;DHT22;321;48.814;9.132;2023-02-22T17:54:49;11.60;99.90
678;DHT22;321;48.814;9.132;2023-02-22T17:57:15;11.50;99.90
678;DHT22;321;48.814;9.132;2023-02-22T17:59:41;11.40;99.90
678;DHT22;321;48.814;9.132;2023-02-22T18:02:06;11.20;99.90
678;DHT22;321;48.814;9.132;2023-02-22T18:04:33;11.00;99.90
678;DHT22;321;48.814;9.132;2023-02-22T18:07:03;11.00;99.90
678;DHT22;321;48.814;9.132;2023-02-22T18:09:29;11.00;99.90
678;DHT22;321;48.814;9.132;2023-02-22T18:11:55;11.10;99.90
678;DHT22;321;48.814;9.132;2023-02-22T18:14:20;11.10;99.90
678;DHT22;321;48.814;9.132;2023-02-22T18:16:46;11.10;99.90
678;DHT22;321;48.814;9.132;2023-02-22T18:19:11;11.10;99.90
678;DHT22;321;48.814;9.132;2023-02-22T18:21:37;11.10;99.90
678;DHT22;321;48.814;9.132;2023-02-22T18:24:03;11.00;99.90
678;DHT22;321;48.814;9.132;2023-02-22T18:26:28;11.10;99.90
678;DHT22;321;48.814;9.132;2023-02-22T18:28:54;11.10;99.90
678;DHT22;321;48.814;9.132;2023-02-22T18:31:21;11.20;99.90
678;DHT22;321;48.814;9.132;2023-02-22T18:33:49;11.20;99.90
678;DHT22;321;48.814;9.132;2023-02-22T18:36:16;11.10;99.90
678;DHT22;321;48.814;9.132;2023-02-22T18:38:46;11.10;99.90
678;DHT22;321;48.814;9.132;2023-02-22T18:41:15;11.10;99.90
678;DHT22;321;48.814;9.132;2023-02-22T18:43:41;11.00;99.90
678;DHT22;321;48.814;9.132;2023-02-22T18:46:19;10.80;99.90
678;DHT22;321;48.814;9.132;2023-02-22T18:48:46;10.80;99.90
678;DHT22;321;48.814;9.132;2023-02-22T18:51:13;10.80;99.90
678;DHT22;321;48.814;9.132;2023-02-22T18:53:40;10.80;99.90
678;DHT22;321;48.814;9.132;2023-02-22T18:56:10;10.80;99.90
678;DHT22;321;48.814;9.132;2023-02-22T18:58:36;10.80;99.90
678;DHT22;321;48.814;9.132;2023-02-22T19:01:04;10.90;99.90
678;DHT22;321;48.814;9.132;2023-02-22T19:03:31;10.90;99.90
678;DHT22;321;48.814;9.132;2023-02-22T19:06:07;10.80;99.90
678;DHT22;321;48.814;9.132;2023-02-22T19:08:34;10.80;99.90
678;DHT22;321;48.814;9.132;2023-02-22T19:11:08;10.90;99.90
678;DHT22;321;48.814;9.132;2023-02-22T19:13:35;11.00;99.90
678;DHT22;321;48.814;9.132;2023-02-22T19:16:02;11.00;99.90
678;DHT22;321;48.814;9.132;2023-02-22T19:18:28;11.10;99.90
678;DHT22;321;48.814;9.132;2023-02-22T19:20:59;11.20;99.90